createdAt,value
2023-02-18T00:01:26.358Z,9.10
2023-02-18T00:03:55.032Z,9.10
2023-02-18T00:06:25.741Z,9.00
2023-02-18T00:08:56.259Z,9.00
2023-02-18T00:11:24.514Z,9.00
2023-02-18T00:13:52.921Z,9.00
2023-02-18T00:16:21.392Z,8.90
2023-02-18T00:18:49.760Z,8.80
2023-02-18T00:21:18.237Z,8.80
2023-02-18T00:23:48.299Z,8.80
2023-02-18T00:26:17.616Z,8.80
2023-02-18T00:28:48.453Z,8.70
2023-02-18T00:31:18.168Z,8.60
2023-02-18T00:33:46.652Z,8.70
2023-02-18T00:36:15.669Z,8.60
2023-02-18T00:38:45.447Z,8.50
2023-02-18T00:41:15.330Z,8.50
2023-02-18T00:43:43.757Z,8.40
2023-02-18T00:46:12.233Z,8.20
2023-02-18T00:48:40.474Z,8.30
2023-02-18T00:51:09.181Z,8.30
2023-02-18T00:53:37.676Z,8.30
2023-02-18T00:56:06.619Z,8.20
2023-02-18T00:58:36.705Z,8.20
2023-02-18T01:01:07.421Z,8.10
2023-02-18T01:03:36.288Z,8.10
2023-02-18T01:06:05.007Z,8.00
2023-02-18T01:08:33.480Z,8.00
2023-02-18T01:11:01.695Z,7.90
2023-02-18T01:13:30.001Z,7.90
2023-02-18T01:15:59.537Z,8.00
2023-02-18T01:18:28.206Z,7.90
2023-02-18T01:20:56.314Z,7.90
2023-02-18T01:23:24.637Z,7.80
2023-02-18T01:25:52.796Z,7.80
2023-02-18T01:28:21.469Z,7.80
2023-02-18T01:30:51.316Z,7.70
2023-02-18T01:33:21.738Z,7.70
2023-02-18T01:35:50.167Z,7.70
2023-02-18T01:38:18.641Z,7.60
2023-02-18T01:40:48.087Z,7.50
2023-02-18T01:43:16.726Z,7.50
2023-02-18T01:45:53.141Z,7.50
2023-02-18T01:48:24.506Z,7.50
2023-02-18T01:50:55.101Z,7.40
2023-02-18T01:53:27.102Z,7.40
2023-02-18T01:55:56.025Z,7.40
2023-02-18T01:58:24.335Z,7.50
2023-02-18T02:00:52.603Z,7.60
2023-02-18T02:03:22.102Z,7.60
2023-02-18T02:05:50.247Z,7.60
2023-02-18T02:08:18.411Z,7.60
2023-02-18T02:10:53.629Z,7.50
2023-02-18T02:13:25.574Z,7.60
2023-02-18T02:15:57.559Z,7.60
2023-02-18T02:18:33.530Z,7.60
2023-02-18T02:21:36.794Z,7.60
2023-02-18T02:24:24.938Z,7.60
2023-02-18T02:27:08.019Z,7.60
2023-02-18T02:29:51.717Z,7.50
2023-02-18T02:32:32.647Z,7.30
2023-02-18T02:35:03.902Z,7.30
2023-02-18T02:37:36.282Z,7.30
2023-02-18T02:40:08.160Z,7.20
2023-02-18T02:42:41.846Z,7.20
2023-02-18T02:45:14.032Z,7.20
2023-02-18T02:47:46.169Z,7.10
2023-02-18T02:50:19.676Z,7.10
2023-02-18T02:52:51.002Z,7.00
2023-02-18T02:55:19.186Z,7.00
2023-02-18T02:57:49.802Z,7.00
2023-02-18T03:00:19.421Z,7.00
2023-02-18T03:02:59.551Z,6.90
2023-02-18T03:05:36.295Z,6.90
2023-02-18T03:08:08.922Z,6.90
2023-02-18T03:10:52.279Z,6.80
2023-02-18T03:13:27.006Z,6.80
2023-02-18T03:15:57.075Z,6.80
2023-02-18T03:18:28.872Z,6.80
2023-02-18T03:21:01.120Z,6.80
2023-02-18T03:23:30.771Z,6.90
2023-02-18T03:25:59.277Z,6.80
2023-02-18T03:28:31.988Z,6.90
2023-02-18T03:31:01.234Z,6.80
2023-02-18T03:33:32.317Z,6.80
2023-02-18T03:36:02.172Z,6.70
2023-02-18T03:38:32.489Z,6.80
2023-02-18T03:41:00.676Z,6.80
2023-02-18T03:43:29.516Z,6.80
2023-02-18T03:45:57.918Z,6.80
2023-02-18T03:48:26.478Z,6.80
2023-02-18T03:50:54.604Z,6.90
2023-02-18T03:53:24.336Z,6.90
2023-02-18T03:55:52.466Z,6.90
2023-02-18T03:58:20.621Z,7.00
2023-02-18T04:00:48.844Z,7.00
2023-02-18T04:03:16.939Z,7.00
2023-02-18T04:05:45.148Z,7.00
2023-02-18T04:08:13.289Z,7.00
2023-02-18T04:10:42.799Z,7.10
2023-02-18T04:13:10.967Z,7.10
2023-02-18T04:15:39.186Z,7.10
2023-02-18T04:18:07.319Z,7.10
2023-02-18T04:20:35.474Z,7.10
2023-02-18T04:23:03.841Z,7.10
2023-02-18T04:25:32.069Z,7.10
2023-02-18T04:28:01.724Z,7.10
2023-02-18T04:30:29.983Z,7.20
2023-02-18T04:32:58.117Z,7.20
2023-02-18T04:35:26.281Z,7.30
2023-02-18T04:37:54.477Z,7.30
2023-02-18T04:40:25.293Z,7.30
2023-02-18T04:42:53.572Z,7.30
2023-02-18T04:45:23.101Z,7.40
2023-02-18T04:47:51.372Z,7.50
2023-02-18T04:50:20.190Z,7.50
2023-02-18T04:52:48.496Z,7.60
2023-02-18T04:55:16.641Z,7.60
2023-02-18T04:57:44.734Z,7.60
2023-02-18T05:00:15.618Z,7.60
2023-02-18T05:02:45.166Z,7.60
2023-02-18T05:05:13.324Z,7.60
2023-02-18T05:07:42.587Z,7.70
2023-02-18T05:10:12.029Z,7.60
2023-02-18T05:12:40.134Z,7.60
2023-02-18T05:15:08.819Z,7.60
2023-02-18T05:17:36.946Z,7.60
2023-02-18T05:20:09.811Z,7.60
2023-02-18T05:22:38.164Z,7.60
2023-02-18T05:25:06.980Z,7.60
2023-02-18T05:27:35.129Z,7.50
2023-02-18T05:30:03.515Z,7.50
2023-02-18T05:32:31.694Z,7.50
2023-02-18T05:34:59.821Z,7.60
2023-02-18T05:37:29.413Z,7.60
2023-02-18T05:39:57.542Z,7.60
2023-02-18T05:42:25.717Z,7.50
2023-02-18T05:44:53.958Z,7.50
2023-02-18T05:47:22.108Z,7.40
2023-02-18T05:49:50.836Z,7.40
2023-02-18T05:52:19.105Z,7.40
2023-02-18T05:54:48.688Z,7.40
2023-02-18T05:57:16.799Z,7.30
2023-02-18T05:59:45.100Z,7.30
2023-02-18T06:02:13.231Z,7.30
2023-02-18T06:04:41.601Z,7.40
2023-02-18T06:07:09.840Z,7.40
2023-02-18T06:09:37.974Z,7.40
2023-02-18T06:12:07.784Z,7.40
2023-02-18T06:14:35.957Z,7.50
2023-02-18T06:17:04.110Z,7.50
2023-02-18T06:19:32.234Z,7.50
2023-02-18T06:22:00.344Z,7.40
2023-02-18T06:24:28.446Z,7.50
2023-02-18T06:26:56.858Z,7.50
2023-02-18T06:29:26.381Z,7.50
2023-02-18T06:31:54.558Z,7.40
2023-02-18T06:34:22.709Z,7.40
2023-02-18T06:36:50.918Z,7.50
2023-02-18T06:39:19.168Z,7.50
2023-02-18T06:41:47.289Z,7.50
2023-02-18T06:44:17.303Z,7.50
2023-02-18T06:46:46.807Z,7.50
2023-02-18T06:49:14.958Z,7.50
2023-02-18T06:51:43.131Z,7.50
2023-02-18T06:54:11.292Z,7.40
2023-02-18T06:56:39.431Z,7.40
2023-02-18T06:59:08.286Z,7.20
2023-02-18T07:01:36.513Z,7.20
2023-02-18T07:04:06.964Z,7.10
2023-02-18T07:06:35.233Z,7.00
2023-02-18T07:09:03.385Z,7.00
2023-02-18T07:11:31.532Z,6.80
2023-02-18T07:13:59.685Z,6.70
2023-02-18T07:16:27.841Z,6.70
2023-02-18T07:18:56.052Z,6.60
2023-02-18T07:21:25.905Z,6.60
2023-02-18T07:23:54.025Z,6.60
2023-02-18T07:26:22.131Z,6.60
2023-02-18T07:28:50.272Z,6.50
2023-02-18T07:31:18.989Z,6.50
2023-02-18T07:33:47.244Z,6.50
2023-02-18T07:36:15.749Z,6.50
2023-02-18T07:38:45.486Z,6.50
2023-02-18T07:41:17.451Z,6.50
2023-02-18T07:43:46.072Z,6.50
2023-02-18T07:46:14.796Z,6.50
2023-02-18T07:48:43.499Z,6.50
2023-02-18T07:51:12.640Z,6.50
2023-02-18T07:53:41.604Z,6.50
2023-02-18T07:56:12.107Z,6.50
2023-02-18T07:58:40.560Z,6.50
2023-02-18T08:01:09.491Z,6.50
2023-02-18T08:03:38.326Z,6.50
2023-02-18T08:06:07.387Z,6.60
2023-02-18T08:08:37.193Z,6.60
2023-02-18T08:11:18.512Z,6.60
2023-02-18T08:13:49.550Z,6.70
2023-02-18T08:16:18.678Z,6.70
2023-02-18T08:18:47.846Z,6.70
2023-02-18T08:21:16.472Z,6.60
2023-02-18T08:23:44.906Z,6.70
2023-02-18T08:26:13.604Z,6.70
2023-02-18T08:28:42.125Z,6.80
2023-02-18T08:31:17.669Z,6.90
2023-02-18T08:33:45.995Z,6.90
2023-02-18T08:36:14.549Z,7.00
2023-02-18T08:38:43.032Z,7.00
2023-02-18T08:41:11.493Z,7.00
2023-02-18T08:43:40.323Z,7.10
2023-02-18T08:46:08.641Z,7.10
2023-02-18T08:48:46.445Z,7.10
2023-02-18T08:51:15.899Z,7.10
2023-02-18T08:53:44.996Z,7.10
2023-02-18T08:56:14.525Z,7.10
2023-02-18T08:58:42.914Z,7.10
2023-02-18T09:01:12.428Z,7.10
2023-02-18T09:03:41.240Z,7.20
2023-02-18T09:06:11.095Z,7.20
2023-02-18T09:08:39.232Z,7.30
2023-02-18T09:11:08.404Z,7.30
2023-02-18T09:13:36.835Z,7.30
2023-02-18T09:16:06.585Z,7.30
2023-02-18T09:18:36.550Z,7.30
2023-02-18T09:21:06.371Z,7.40
2023-02-18T09:23:36.619Z,7.40
2023-02-18T09:26:06.325Z,7.30
2023-02-18T09:28:34.829Z,7.30
2023-02-18T09:31:05.680Z,7.30
2023-02-18T09:33:35.987Z,7.30
2023-02-18T09:36:04.647Z,7.30
2023-02-18T09:38:33.001Z,7.30
2023-02-18T09:41:04.380Z,7.30
2023-02-18T09:43:35.073Z,7.30
2023-02-18T09:46:04.313Z,7.30
2023-02-18T09:48:34.024Z,7.40
2023-02-18T09:51:02.627Z,7.40
2023-02-18T09:53:31.098Z,7.40
2023-02-18T09:56:00.637Z,7.50
2023-02-18T09:58:32.653Z,7.60
2023-02-18T10:01:08.492Z,7.70
2023-02-18T10:03:36.918Z,7.80
2023-02-18T10:06:07.574Z,7.90
2023-02-18T10:08:37.006Z,8.00
2023-02-18T10:11:05.997Z,8.00
2023-02-18T10:13:36.149Z,8.10
2023-02-18T10:16:04.968Z,8.20
2023-02-18T10:18:35.263Z,8.20
2023-02-18T10:21:07.536Z,8.30
2023-02-18T10:23:38.036Z,8.30
2023-02-18T10:26:08.394Z,8.30
2023-02-18T10:28:38.933Z,8.40
2023-02-18T10:31:10.970Z,8.50
2023-02-18T10:33:44.654Z,8.50
2023-02-18T10:36:19.502Z,8.60
2023-02-18T10:38:54.125Z,8.60
2023-02-18T10:41:26.764Z,8.80
2023-02-18T10:43:59.760Z,8.90
2023-02-18T10:46:30.516Z,9.10
2023-02-18T10:49:06.650Z,9.20
2023-02-18T10:51:36.568Z,9.20
2023-02-18T10:54:05.095Z,9.20
2023-02-18T10:56:36.306Z,9.30
2023-02-18T10:59:11.546Z,9.30
2023-02-18T11:01:40.132Z,9.30
2023-02-18T11:04:13.546Z,9.30
2023-02-18T11:06:43.354Z,9.30
2023-02-18T11:09:24.325Z,9.30
2023-02-18T11:12:01.448Z,9.30
2023-02-18T11:14:45.133Z,9.40
2023-02-18T11:17:23.668Z,9.40
2023-02-18T11:19:53.417Z,9.50
2023-02-18T11:22:22.786Z,9.50
2023-02-18T11:24:55.261Z,9.60
2023-02-18T11:27:25.806Z,9.70
2023-02-18T11:29:58.519Z,9.70
2023-02-18T11:32:28.306Z,9.70
2023-02-18T11:34:57.147Z,9.80
2023-02-18T11:37:25.558Z,9.70
2023-02-18T11:39:55.678Z,9.80
2023-02-18T11:42:26.259Z,9.80
2023-02-18T11:44:57.406Z,9.80
2023-02-18T11:47:27.149Z,9.80
2023-02-18T11:50:10.138Z,9.90
2023-02-18T11:52:39.499Z,9.90
2023-02-18T11:55:09.209Z,9.80
2023-02-18T11:57:39.730Z,9.80
2023-02-18T12:00:17.047Z,9.90
2023-02-18T12:02:45.716Z,9.80
2023-02-18T12:05:15.780Z,9.90
2023-02-18T12:07:45.607Z,9.90
2023-02-18T12:10:15.665Z,9.90
2023-02-18T12:12:46.744Z,9.90
2023-02-18T12:15:19.112Z,10.00
2023-02-18T12:18:00.259Z,10.10
2023-02-18T12:20:41.449Z,10.20
2023-02-18T12:23:11.957Z,10.30
2023-02-18T12:25:43.938Z,10.40
2023-02-18T12:28:16.670Z,10.40
2023-02-18T12:30:52.325Z,10.50
2023-02-18T12:33:25.986Z,10.50
2023-02-18T12:36:01.364Z,10.50
2023-02-18T12:38:41.837Z,10.50
2023-02-18T12:41:17.958Z,10.60
2023-02-18T12:43:52.359Z,10.70
2023-02-18T12:46:28.230Z,10.60
2023-02-18T12:49:04.728Z,10.60
2023-02-18T12:51:39.607Z,10.60
2023-02-18T12:54:20.272Z,10.70
2023-02-18T12:56:58.101Z,10.70
2023-02-18T12:59:44.126Z,10.70
2023-02-18T13:02:20.110Z,10.60
2023-02-18T13:04:53.721Z,10.60
2023-02-18T13:07:40.376Z,10.70
2023-02-18T13:10:20.899Z,10.70
2023-02-18T13:12:53.324Z,10.70
2023-02-18T13:15:24.156Z,10.70
2023-02-18T13:17:59.056Z,10.60
2023-02-18T13:20:35.522Z,10.50
2023-02-18T13:23:04.547Z,10.30
2023-02-18T13:25:34.084Z,10.10
2023-02-18T13:28:09.872Z,10.10
2023-02-18T13:30:41.690Z,10.00
2023-02-18T13:33:15.051Z,10.00
2023-02-18T13:35:46.250Z,10.10
2023-02-18T13:38:27.819Z,10.10
2023-02-18T13:40:57.560Z,10.20
2023-02-18T13:43:30.902Z,10.10
2023-02-18T13:46:09.143Z,9.90
2023-02-18T13:48:41.641Z,9.90
2023-02-18T13:51:10.410Z,9.70
2023-02-18T13:53:39.550Z,9.70
2023-02-18T13:56:09.626Z,9.80
2023-02-18T13:58:39.876Z,9.80
2023-02-18T14:01:15.633Z,9.90
2023-02-18T14:04:02.400Z,9.80
2023-02-18T14:06:32.245Z,9.70
2023-02-18T14:09:06.341Z,9.70
2023-02-18T14:11:40.695Z,9.70
2023-02-18T14:14:17.048Z,9.80
2023-02-18T14:17:00.108Z,9.90
2023-02-18T14:19:30.793Z,10.00
2023-02-18T14:22:14.193Z,10.00
2023-02-18T14:24:48.691Z,10.20
2023-02-18T14:27:17.750Z,10.30
2023-02-18T14:29:46.575Z,10.20
2023-02-18T14:32:20.857Z,10.10
2023-02-18T14:35:14.639Z,10.00
2023-02-18T14:37:58.404Z,10.00
2023-02-18T14:40:28.771Z,10.00
2023-02-18T14:43:01.707Z,9.90
2023-02-18T14:45:36.498Z,9.80
2023-02-18T14:48:14.225Z,9.90
2023-02-18T14:50:45.394Z,9.90
2023-02-18T14:53:18.430Z,9.90
2023-02-18T14:55:48.926Z,10.00
2023-02-18T14:58:27.677Z,9.90
2023-02-18T15:00:56.093Z,9.90
2023-02-18T15:03:25.306Z,9.90
2023-02-18T15:05:55.250Z,9.90
2023-02-18T15:11:46.278Z,9.00
2023-02-18T15:14:22.016Z,8.80
2023-02-18T15:16:50.596Z,8.80
2023-02-18T15:19:20.664Z,8.90
2023-02-18T15:21:51.023Z,9.00
2023-02-18T15:24:24.688Z,9.00
2023-02-18T15:26:53.567Z,9.10
2023-02-18T15:29:22.781Z,9.00
2023-02-18T15:31:51.624Z,8.90
2023-02-18T15:34:30.692Z,8.80
2023-02-18T15:37:01.013Z,8.80
2023-02-18T15:39:29.803Z,8.70
2023-02-18T15:42:00.666Z,8.70
2023-02-18T15:44:30.178Z,8.70
2023-02-18T15:47:01.022Z,8.70
2023-02-18T15:49:29.482Z,8.70
2023-02-18T15:52:00.815Z,8.80
2023-02-18T15:54:31.170Z,8.80
2023-02-18T15:57:02.560Z,8.90
2023-02-18T15:59:31.597Z,8.90
2023-02-18T16:02:11.742Z,8.90
2023-02-18T16:04:41.037Z,9.00
2023-02-18T16:07:20.841Z,9.00
2023-02-18T16:09:51.441Z,9.00
2023-02-18T16:12:23.907Z,9.10
2023-02-18T16:14:52.304Z,9.10
2023-02-18T16:17:22.418Z,9.10
2023-02-18T16:20:03.911Z,9.10
2023-02-18T16:22:37.252Z,9.10
2023-02-18T16:25:15.014Z,9.10
2023-02-18T16:27:48.834Z,9.10
2023-02-18T16:30:18.745Z,9.10
2023-02-18T16:32:47.302Z,9.20
2023-02-18T16:35:15.970Z,9.20
2023-02-18T16:37:45.961Z,9.20
2023-02-18T16:40:27.466Z,9.10
2023-02-18T16:42:56.602Z,9.10
2023-02-18T16:45:27.719Z,9.10
2023-02-18T16:47:56.004Z,9.10
2023-02-18T16:50:24.377Z,9.00
2023-02-18T16:52:52.890Z,9.00
2023-02-18T16:55:22.175Z,9.00
2023-02-18T16:57:51.934Z,9.00
2023-02-18T17:00:20.697Z,8.90
2023-02-18T17:02:49.740Z,9.00
2023-02-18T17:05:26.375Z,9.00
2023-02-18T17:07:55.275Z,8.80
2023-02-18T17:10:23.514Z,8.80
2023-02-18T17:12:53.054Z,8.80
2023-02-18T17:15:31.467Z,8.80
2023-02-18T17:18:07.295Z,8.80
2023-02-18T17:20:35.439Z,8.90
2023-02-18T17:23:03.991Z,8.90
2023-02-18T17:25:33.924Z,9.00
2023-02-18T17:28:03.820Z,9.10
2023-02-18T17:30:33.673Z,9.10
2023-02-18T17:33:03.276Z,8.90
2023-02-18T17:35:31.702Z,8.80
2023-02-18T17:37:59.985Z,8.80
2023-02-18T17:40:29.337Z,8.80
2023-02-18T17:42:57.917Z,8.90
2023-02-18T17:45:29.891Z,8.90
2023-02-18T17:47:59.435Z,9.00
2023-02-18T17:50:28.022Z,9.10
2023-02-18T17:52:56.394Z,9.10
2023-02-18T17:55:26.233Z,9.20
2023-02-18T17:57:54.595Z,9.10
2023-02-18T18:00:24.459Z,8.90
2023-02-18T18:02:54.487Z,8.70
2023-02-18T18:05:23.745Z,8.70
2023-02-18T18:07:52.453Z,8.70
2023-02-18T18:10:22.099Z,8.70
2023-02-18T18:12:50.925Z,8.70
2023-02-18T18:15:24.814Z,8.70
2023-02-18T18:17:54.758Z,8.70
2023-02-18T18:20:24.344Z,8.70
2023-02-18T18:22:53.031Z,8.60
2023-02-18T18:25:23.530Z,8.60
2023-02-18T18:27:52.971Z,8.60
2023-02-18T18:30:22.132Z,8.70
2023-02-18T18:32:50.593Z,8.70
2023-02-18T18:35:22.250Z,8.80
2023-02-18T18:37:51.319Z,8.80
2023-02-18T18:40:19.933Z,8.90
2023-02-18T18:42:48.459Z,9.00
2023-02-18T18:45:18.303Z,9.00
2023-02-18T18:47:46.809Z,9.00
2023-02-18T18:50:15.787Z,8.90
2023-02-18T18:52:45.462Z,8.80
2023-02-18T18:55:18.702Z,8.80
2023-02-18T18:57:47.359Z,8.80
2023-02-18T19:00:16.601Z,8.80
2023-02-18T19:02:44.849Z,8.80
2023-02-18T19:05:18.861Z,8.80
2023-02-18T19:07:48.885Z,8.80
2023-02-18T19:10:17.778Z,8.80
2023-02-18T19:12:46.753Z,8.80
2023-02-18T19:15:15.987Z,8.80
2023-02-18T19:17:47.964Z,8.90
2023-02-18T19:20:17.417Z,8.90
2023-02-18T19:22:45.519Z,8.90
2023-02-18T19:25:15.598Z,9.00
2023-02-18T19:27:44.909Z,9.10
2023-02-18T19:30:15.396Z,9.00
2023-02-18T19:32:43.607Z,9.10
2023-02-18T19:35:11.782Z,9.10
2023-02-18T19:37:40.198Z,9.10
2023-02-18T19:40:09.660Z,9.10
2023-02-18T19:42:39.677Z,9.10
2023-02-18T19:45:08.474Z,9.10
2023-02-18T19:47:37.305Z,9.00
2023-02-18T19:50:06.728Z,9.10
2023-02-18T19:52:34.904Z,9.10
2023-02-18T19:55:03.288Z,9.10
2023-02-18T19:57:32.062Z,9.10
2023-02-18T20:00:02.006Z,9.10
2023-02-18T20:02:31.466Z,9.10
2023-02-18T20:05:01.873Z,9.00
2023-02-18T20:07:31.134Z,9.00
2023-02-18T20:09:59.649Z,9.00
2023-02-18T20:12:28.222Z,9.00
2023-02-18T20:14:56.746Z,8.90
2023-02-18T20:17:26.418Z,8.90
2023-02-18T20:19:54.670Z,9.00
2023-02-18T20:22:23.305Z,8.90
2023-02-18T20:24:51.955Z,9.00
2023-02-18T20:27:20.138Z,9.00
2023-02-18T20:29:48.690Z,9.00
2023-02-18T20:32:18.985Z,9.00
2023-02-18T20:34:49.172Z,9.00
2023-02-18T20:37:17.749Z,9.00
2023-02-18T20:39:45.909Z,9.00
2023-02-18T20:42:16.631Z,8.90
2023-02-18T20:44:45.209Z,8.90
2023-02-18T20:47:14.242Z,8.90
2023-02-18T20:49:42.880Z,8.90
2023-02-18T20:52:12.524Z,8.90
2023-02-18T20:54:40.739Z,8.90
2023-02-18T20:57:10.027Z,9.00
2023-02-18T20:59:38.393Z,9.00
2023-02-18T21:02:07.078Z,9.00
2023-02-18T21:04:35.309Z,9.10
2023-02-18T21:07:03.630Z,9.00
2023-02-18T21:09:33.463Z,9.10
2023-02-18T21:12:02.044Z,9.10
2023-02-18T21:14:30.313Z,9.10
2023-02-18T21:16:58.875Z,9.00
2023-02-18T21:19:27.024Z,9.00
2023-02-18T21:21:55.267Z,9.00
2023-02-18T21:24:23.827Z,8.90
2023-02-18T21:26:53.805Z,8.90
2023-02-18T21:29:22.645Z,8.80
2023-02-18T21:31:50.918Z,8.90
2023-02-18T21:34:19.598Z,8.90
2023-02-18T21:36:47.759Z,8.90
2023-02-18T21:39:15.870Z,8.90
2023-02-18T21:41:44.007Z,8.90
2023-02-18T21:44:14.489Z,8.90
2023-02-18T21:46:43.274Z,8.90
2023-02-18T21:49:12.732Z,8.90
2023-02-18T21:52:02.199Z,9.00
2023-02-18T21:54:31.246Z,8.90
2023-02-18T21:57:00.278Z,9.00
2023-02-18T21:59:30.987Z,9.00
2023-02-18T22:02:00.792Z,8.90
2023-02-18T22:04:29.414Z,8.90
2023-02-18T22:06:58.681Z,8.90
2023-02-18T22:09:27.071Z,8.90
2023-02-18T22:11:55.652Z,9.00
2023-02-18T22:14:23.782Z,8.90
2023-02-18T22:16:53.658Z,8.90
2023-02-18T22:19:21.872Z,8.90
2023-02-18T22:21:50.369Z,8.90
2023-02-18T22:24:19.428Z,8.80
2023-02-18T22:26:48.341Z,8.80
2023-02-18T22:29:17.918Z,8.80
2023-02-18T22:31:47.344Z,8.80
2023-02-18T22:34:17.580Z,8.90
2023-02-18T22:36:46.100Z,8.90
2023-02-18T22:39:15.179Z,8.80
2023-02-18T22:41:43.647Z,8.90
2023-02-18T22:44:13.097Z,8.90
2023-02-18T22:46:41.997Z,8.90
2023-02-18T22:49:10.508Z,8.90
2023-02-18T22:51:40.674Z,8.90
2023-02-18T22:54:10.946Z,8.90
2023-02-18T22:56:39.250Z,8.90
2023-02-18T22:59:07.622Z,8.90
2023-02-18T23:01:41.889Z,8.90
2023-02-18T23:04:11.269Z,8.90
2023-02-18T23:06:42.183Z,8.90
2023-02-18T23:09:12.627Z,8.90
2023-02-18T23:11:40.771Z,8.90
2023-02-18T23:14:21.629Z,8.90
2023-02-18T23:17:08.461Z,8.90
2023-02-18T23:19:37.452Z,9.00
2023-02-18T23:22:07.026Z,9.00
2023-02-18T23:24:35.384Z,9.00
2023-02-18T23:27:04.253Z,9.00
2023-02-18T23:29:32.421Z,9.00
2023-02-18T23:32:01.181Z,9.00
2023-02-18T23:34:29.593Z,9.00
2023-02-18T23:36:58.242Z,9.00
2023-02-18T23:39:29.556Z,9.10
2023-02-18T23:41:57.956Z,9.00
2023-02-18T23:44:26.929Z,9.10
2023-02-18T23:46:55.678Z,9.10
2023-02-18T23:49:25.084Z,9.00
2023-02-18T23:51:54.189Z,9.00
2023-02-18T23:54:22.719Z,9.00
2023-02-18T23:56:52.223Z,9.00
2023-02-18T23:59:20.748Z,9.00
